Ingram, Texas
Current Conditions -  °F | °C
As of 5:15 PM on Saturday 25 Oct 2014 (Local Time) from KERV Reporting Station
Clear Clear  
Wind Chill: 84°   Ceiling: Unl
Heat Index: 84°   Visibility: 10mi
Dew Point: 55°   Wind: 8mph
Humidity: 36%   Direction: 150°SSE
Pressure: 30.12"   Gusts: NA
Location:  30.08°N, 99.24°W
Report Text: KERV 252215Z AUTO 15007KT 10SM CLR 29/13 A3012 RMK AO2 T02900126
Loading
Personal Weather Stations






























Interactive Weather Map
Tropical Storm Tracking
New forecast layout! Learn more

10-Day Weather Forecast

Advertisements
Track Severe Weather on mobile